createdAt,value
2018-06-30T00:01:35.001Z,21.28
2018-06-30T00:04:04.441Z,21.29
2018-06-30T00:06:33.618Z,21.44
2018-06-30T00:09:03.070Z,21.23
2018-06-30T00:11:32.324Z,21.20
2018-06-30T00:14:01.606Z,21.07
2018-06-30T00:16:30.939Z,20.98
2018-06-30T00:19:00.185Z,20.72
2018-06-30T00:21:29.478Z,20.72
2018-06-30T00:23:58.668Z,20.69
2018-06-30T00:26:27.900Z,20.44
2018-06-30T00:28:57.048Z,20.52
2018-06-30T00:31:26.256Z,20.30
2018-06-30T00:33:55.466Z,20.36
2018-06-30T00:36:24.779Z,20.55
2018-06-30T00:38:53.984Z,20.46
2018-06-30T00:41:23.790Z,20.45
2018-06-30T00:43:53.084Z,20.38
2018-06-30T00:46:22.276Z,20.40
2018-06-30T00:48:52.714Z,20.18
2018-06-30T00:51:21.887Z,20.22
2018-06-30T00:53:51.308Z,19.90
2018-06-30T00:56:20.456Z,19.93
2018-06-30T00:58:49.873Z,19.92
2018-06-30T01:01:19.052Z,19.78
2018-06-30T01:03:48.316Z,19.72
2018-06-30T01:06:17.453Z,19.74
2018-06-30T01:08:47.217Z,19.80
2018-06-30T01:11:16.400Z,19.72
2018-06-30T01:13:45.697Z,19.49
2018-06-30T01:16:14.982Z,19.46
2018-06-30T01:18:44.227Z,19.50
2018-06-30T01:21:13.472Z,19.28
2018-06-30T01:23:42.753Z,19.33
2018-06-30T01:26:12.077Z,19.28
2018-06-30T01:28:41.391Z,19.50
2018-06-30T01:31:10.701Z,19.46
2018-06-30T01:33:40.297Z,19.22
2018-06-30T01:36:09.461Z,19.35
2018-06-30T01:38:38.643Z,19.41
2018-06-30T01:41:07.840Z,19.41
2018-06-30T01:43:37.186Z,19.28
2018-06-30T01:46:06.573Z,19.39
2018-06-30T01:48:35.886Z,19.29
2018-06-30T01:51:05.077Z,19.23
2018-06-30T01:53:34.367Z,19.41
2018-06-30T01:56:03.593Z,19.41
2018-06-30T01:58:32.915Z,19.41
2018-06-30T02:01:02.117Z,19.17
2018-06-30T02:03:31.509Z,19.02
2018-06-30T02:06:00.698Z,18.96
2018-06-30T02:08:29.881Z,18.82
2018-06-30T02:10:59.079Z,18.86
2018-06-30T02:13:28.402Z,18.77
2018-06-30T02:15:57.684Z,18.80
2018-06-30T02:18:26.984Z,18.78
2018-06-30T02:20:56.225Z,18.80
2018-06-30T02:23:25.585Z,18.71
2018-06-30T02:25:54.840Z,18.60
2018-06-30T02:28:24.023Z,18.52
2018-06-30T02:30:53.221Z,18.64
2018-06-30T02:33:22.405Z,18.57
2018-06-30T02:35:51.664Z,18.45
2018-06-30T02:38:20.872Z,18.49
2018-06-30T02:40:50.086Z,18.47
2018-06-30T02:43:19.230Z,18.38
2018-06-30T02:45:48.450Z,18.44
2018-06-30T02:48:18.131Z,18.44
2018-06-30T02:50:47.511Z,18.30
2018-06-30T02:53:16.676Z,18.00
2018-06-30T02:55:45.954Z,18.15
2018-06-30T02:58:15.360Z,18.05
2018-06-30T03:00:44.605Z,18.17
2018-06-30T03:03:13.850Z,18.22
2018-06-30T03:05:43.061Z,17.98
2018-06-30T03:08:12.382Z,17.94
2018-06-30T03:10:41.652Z,18.22
2018-06-30T03:13:10.954Z,18.02
2018-06-30T03:15:40.125Z,18.05
2018-06-30T03:18:09.449Z,18.08
2018-06-30T03:20:38.592Z,17.99
2018-06-30T03:23:08.231Z,18.01
2018-06-30T03:25:37.428Z,17.71
2018-06-30T03:28:06.656Z,17.84
2018-06-30T03:30:35.889Z,17.80
2018-06-30T03:33:05.473Z,17.59
2018-06-30T03:35:34.657Z,17.56
2018-06-30T03:38:03.956Z,17.49
2018-06-30T03:40:33.252Z,17.42
2018-06-30T03:43:02.464Z,17.32
2018-06-30T03:45:31.748Z,17.56
2018-06-30T03:48:00.873Z,17.58
2018-06-30T03:50:30.041Z,17.53
2018-06-30T03:52:59.201Z,17.40
2018-06-30T03:55:28.324Z,17.36
2018-06-30T03:57:58.396Z,17.22
2018-06-30T04:00:27.577Z,17.35
2018-06-30T04:02:56.715Z,17.52
2018-06-30T04:05:25.905Z,17.57
2018-06-30T04:07:55.085Z,17.41
2018-06-30T04:10:24.257Z,17.39
2018-06-30T04:12:53.449Z,17.36
2018-06-30T04:15:22.634Z,17.23
2018-06-30T04:17:51.819Z,17.09
2018-06-30T04:20:21.103Z,17.13
2018-06-30T04:22:50.382Z,17.06
2018-06-30T04:25:19.568Z,17.23
2018-06-30T04:27:48.721Z,17.25
2018-06-30T04:30:17.930Z,17.33
2018-06-30T04:32:47.069Z,17.44
2018-06-30T04:35:16.242Z,17.48
2018-06-30T04:37:45.393Z,17.65
2018-06-30T04:40:14.541Z,17.65
2018-06-30T04:42:43.761Z,17.76
2018-06-30T04:45:12.956Z,17.80
2018-06-30T04:47:42.952Z,17.96
2018-06-30T04:50:12.117Z,17.86
2018-06-30T04:52:41.525Z,17.90
2018-06-30T04:55:10.652Z,17.88
2018-06-30T04:57:39.834Z,17.94
2018-06-30T05:00:09.279Z,18.02
2018-06-30T05:02:38.490Z,17.81
2018-06-30T05:05:07.665Z,17.97
2018-06-30T05:07:36.993Z,17.81
2018-06-30T05:10:06.227Z,17.55
2018-06-30T05:12:35.389Z,17.67
2018-06-30T05:15:05.025Z,17.62
2018-06-30T05:17:34.220Z,17.80
2018-06-30T05:20:03.595Z,17.86
2018-06-30T05:22:32.746Z,18.00
2018-06-30T05:25:02.277Z,18.16
2018-06-30T05:27:31.420Z,18.08
2018-06-30T05:30:00.599Z,18.05
2018-06-30T05:32:29.717Z,17.99
2018-06-30T05:34:58.967Z,18.14
2018-06-30T05:37:28.145Z,18.24
2018-06-30T05:39:57.386Z,18.29
2018-06-30T05:42:26.675Z,18.37
2018-06-30T05:44:55.976Z,18.45
2018-06-30T05:47:25.184Z,18.90
2018-06-30T05:49:54.312Z,18.96
2018-06-30T05:52:23.509Z,19.24
2018-06-30T05:54:52.789Z,19.18
2018-06-30T05:57:22.064Z,19.01
2018-06-30T05:59:51.877Z,19.36
2018-06-30T06:02:21.072Z,19.35
2018-06-30T06:04:50.234Z,19.45
2018-06-30T06:07:19.445Z,19.61
2018-06-30T06:09:48.854Z,19.73
2018-06-30T06:12:18.134Z,19.86
2018-06-30T06:14:47.304Z,19.89
2018-06-30T06:17:16.607Z,20.06
2018-06-30T06:19:46.451Z,20.33
2018-06-30T06:22:16.001Z,20.48
2018-06-30T06:24:45.158Z,20.32
2018-06-30T06:27:14.371Z,20.05
2018-06-30T06:29:43.654Z,19.74
2018-06-30T06:32:12.871Z,19.51
2018-06-30T06:34:42.062Z,19.51
2018-06-30T06:37:11.305Z,19.37
2018-06-30T06:39:40.459Z,19.53
2018-06-30T06:42:09.661Z,19.62
2018-06-30T06:44:39.044Z,19.64
2018-06-30T06:47:08.254Z,18.85
2018-06-30T06:49:37.437Z,19.90
2018-06-30T06:52:06.696Z,19.93
2018-06-30T06:54:36.120Z,20.15
2018-06-30T06:57:05.324Z,20.43
2018-06-30T06:59:34.495Z,20.27
2018-06-30T07:02:03.761Z,19.91
2018-06-30T07:04:32.941Z,19.95
2018-06-30T07:07:02.358Z,20.05
2018-06-30T07:09:31.501Z,20.15
2018-06-30T07:12:00.745Z,20.16
2018-06-30T07:14:29.921Z,20.22
2018-06-30T07:16:59.243Z,20.17
2018-06-30T07:19:28.420Z,20.23
2018-06-30T07:21:57.693Z,20.27
2018-06-30T07:24:26.879Z,20.34
2018-06-30T07:26:56.213Z,20.56
2018-06-30T07:29:25.516Z,20.62
2018-06-30T07:31:54.816Z,20.79
2018-06-30T07:34:24.395Z,20.86
2018-06-30T07:36:53.730Z,20.79
2018-06-30T07:39:22.913Z,20.83
2018-06-30T07:41:52.239Z,20.80
2018-06-30T07:44:21.393Z,20.79
2018-06-30T07:46:50.743Z,20.94
2018-06-30T07:49:20.540Z,21.17
2018-06-30T07:51:50.255Z,21.30
2018-06-30T07:54:19.512Z,21.23
2018-06-30T07:56:48.770Z,20.93
2018-06-30T07:59:17.920Z,21.17
2018-06-30T08:01:48.374Z,21.35
2018-06-30T08:04:17.673Z,21.56
2018-06-30T08:06:46.994Z,22.14
2018-06-30T08:09:16.479Z,22.61
2018-06-30T08:11:45.896Z,22.70
2018-06-30T08:14:15.377Z,22.76
2018-06-30T08:16:44.601Z,22.72
2018-06-30T08:19:13.839Z,23.06
2018-06-30T08:21:43.236Z,23.37
2018-06-30T08:24:12.578Z,23.51
2018-06-30T08:26:41.848Z,23.85
2018-06-30T08:29:11.198Z,24.00
2018-06-30T08:31:40.346Z,23.67
2018-06-30T08:34:09.633Z,23.73
2018-06-30T08:36:38.926Z,23.99
2018-06-30T08:39:11.125Z,24.30
2018-06-30T08:41:40.329Z,24.63
2018-06-30T08:44:09.608Z,24.76
2018-06-30T08:46:39.393Z,24.72
2018-06-30T08:49:09.022Z,24.43
2018-06-30T08:51:38.206Z,24.43
2018-06-30T08:54:07.398Z,24.25
2018-06-30T08:56:36.529Z,24.46
2018-06-30T08:59:06.082Z,24.53
2018-06-30T09:01:35.355Z,24.90
2018-06-30T09:04:04.565Z,25.13
2018-06-30T09:06:33.855Z,25.01
2018-06-30T09:09:03.128Z,25.16
2018-06-30T09:11:32.289Z,23.99
2018-06-30T09:14:01.553Z,25.54
2018-06-30T09:16:30.804Z,25.77
2018-06-30T09:19:00.017Z,26.03
2018-06-30T09:21:29.262Z,26.32
2018-06-30T09:23:58.576Z,26.49
2018-06-30T09:26:27.708Z,26.59
2018-06-30T09:28:57.148Z,26.73
2018-06-30T09:31:26.506Z,26.43
2018-06-30T09:33:55.769Z,26.38
2018-06-30T09:36:24.909Z,25.94
2018-06-30T09:38:54.157Z,25.98
2018-06-30T09:41:23.722Z,26.14
2018-06-30T09:43:52.945Z,26.67
2018-06-30T09:46:22.318Z,26.67
2018-06-30T09:48:51.626Z,26.30
2018-06-30T09:51:20.989Z,26.36
2018-06-30T09:53:50.181Z,26.09
2018-06-30T09:56:19.437Z,26.09
2018-06-30T09:58:48.668Z,25.82
2018-06-30T10:01:18.015Z,25.63
2018-06-30T10:03:47.518Z,25.66
2018-06-30T10:06:16.729Z,26.00
2018-06-30T10:08:45.926Z,26.28
2018-06-30T10:11:19.032Z,26.16
2018-06-30T10:13:48.337Z,26.45
2018-06-30T10:16:17.828Z,26.59
2018-06-30T10:18:47.080Z,26.82
2018-06-30T10:21:16.779Z,26.89
2018-06-30T10:23:46.116Z,27.13
2018-06-30T10:26:15.237Z,27.25
2018-06-30T10:28:44.404Z,27.42
2018-06-30T10:31:13.596Z,27.32
2018-06-30T10:33:42.865Z,27.23
2018-06-30T10:36:12.120Z,27.64
2018-06-30T10:38:41.542Z,27.90
2018-06-30T10:41:10.925Z,28.01
2018-06-30T10:43:40.261Z,27.81
2018-06-30T10:46:09.441Z,27.77
2018-06-30T10:48:38.773Z,27.80
2018-06-30T10:51:07.991Z,27.86
2018-06-30T10:53:37.149Z,27.64
2018-06-30T10:56:06.379Z,27.45
2018-06-30T10:58:35.563Z,27.63
2018-06-30T11:01:04.897Z,27.75
2018-06-30T11:03:34.093Z,27.54
2018-06-30T11:06:03.367Z,27.42
2018-06-30T11:08:32.559Z,27.20
2018-06-30T11:11:01.863Z,27.00
2018-06-30T11:13:31.027Z,26.76
2018-06-30T11:16:00.286Z,26.64
2018-06-30T11:18:29.446Z,27.02
2018-06-30T11:20:58.782Z,27.33
2018-06-30T11:23:27.974Z,27.64
2018-06-30T11:25:57.205Z,27.80
2018-06-30T11:28:26.475Z,28.08
2018-06-30T11:30:55.815Z,28.02
2018-06-30T11:33:25.142Z,28.00
2018-06-30T11:35:54.337Z,27.87
2018-06-30T11:38:23.538Z,27.95
2018-06-30T11:40:52.945Z,27.98
2018-06-30T11:43:21.964Z,28.36
2018-06-30T11:45:51.162Z,28.55
2018-06-30T11:48:20.325Z,28.57
2018-06-30T11:50:49.707Z,28.47
2018-06-30T11:53:18.976Z,28.34
2018-06-30T11:55:48.196Z,28.04
2018-06-30T11:58:17.460Z,28.05
2018-06-30T12:00:46.855Z,28.50
2018-06-30T12:03:16.168Z,28.40
2018-06-30T12:05:45.576Z,28.54
2018-06-30T12:08:14.763Z,28.25
2018-06-30T12:10:43.964Z,28.45
2018-06-30T12:13:13.208Z,28.48
2018-06-30T12:15:42.470Z,28.32
2018-06-30T12:18:11.629Z,28.35
2018-06-30T12:20:40.842Z,28.27
2018-06-30T12:23:10.110Z,28.23
2018-06-30T12:25:39.333Z,28.64
2018-06-30T12:28:08.488Z,28.63
2018-06-30T12:30:37.823Z,28.96
2018-06-30T12:33:06.976Z,29.08
2018-06-30T12:35:36.220Z,29.05
2018-06-30T12:38:05.522Z,28.69
2018-06-30T12:40:34.702Z,28.36
2018-06-30T12:43:03.952Z,27.70
2018-06-30T12:45:33.244Z,27.92
2018-06-30T12:48:02.375Z,27.80
2018-06-30T12:50:31.579Z,28.02
2018-06-30T12:53:00.713Z,28.25
2018-06-30T12:55:29.964Z,28.30
2018-06-30T12:57:59.223Z,28.08
2018-06-30T13:00:28.416Z,27.91
2018-06-30T13:02:57.652Z,28.18
2018-06-30T13:05:27.046Z,28.17
2018-06-30T13:07:56.269Z,28.32
2018-06-30T13:10:25.419Z,28.26
2018-06-30T13:12:54.720Z,28.13
2018-06-30T13:15:24.057Z,28.30
2018-06-30T13:17:53.274Z,28.40
2018-06-30T13:20:22.491Z,28.24
2018-06-30T13:22:51.795Z,28.52
2018-06-30T13:25:21.014Z,28.45
2018-06-30T13:27:50.293Z,28.29
2018-06-30T13:30:19.461Z,28.24
2018-06-30T13:32:49.348Z,28.37
2018-06-30T13:35:18.793Z,28.14
2018-06-30T13:37:48.020Z,27.89
2018-06-30T13:40:17.300Z,27.89
2018-06-30T13:42:46.485Z,28.06
2018-06-30T13:45:15.636Z,28.09
2018-06-30T13:47:44.921Z,28.16
2018-06-30T13:50:14.053Z,28.00
2018-06-30T13:52:43.333Z,27.93
2018-06-30T13:55:12.561Z,28.13
2018-06-30T13:57:42.329Z,28.13
2018-06-30T14:00:11.546Z,27.90
2018-06-30T14:02:40.793Z,27.84
2018-06-30T14:05:09.918Z,27.83
2018-06-30T14:07:39.113Z,28.05
2018-06-30T14:10:08.785Z,28.15
2018-06-30T14:12:38.212Z,28.05
2018-06-30T14:15:08.825Z,28.17
2018-06-30T14:17:38.125Z,28.25
2018-06-30T14:20:08.713Z,27.70
2018-06-30T14:22:38.881Z,27.89
2018-06-30T14:25:08.281Z,27.87
2018-06-30T14:27:37.687Z,26.86
2018-06-30T14:30:09.616Z,27.80
2018-06-30T14:32:39.080Z,27.48
2018-06-30T14:35:08.881Z,27.30
2018-06-30T14:37:38.342Z,27.39
2018-06-30T14:40:08.616Z,27.62
2018-06-30T14:42:37.990Z,27.76
2018-06-30T14:45:07.319Z,27.42
2018-06-30T14:47:37.424Z,27.48
2018-06-30T14:50:06.674Z,27.43
2018-06-30T14:52:35.948Z,27.32
2018-06-30T14:55:05.722Z,27.16
2018-06-30T14:57:35.055Z,27.18
2018-06-30T15:00:05.145Z,27.08
2018-06-30T15:02:34.447Z,27.27
2018-06-30T15:05:03.665Z,27.55
2018-06-30T15:07:33.010Z,27.60
2018-06-30T15:10:02.145Z,27.40
2018-06-30T15:12:31.345Z,27.37
2018-06-30T15:15:00.574Z,27.41
2018-06-30T15:17:29.768Z,27.39
2018-06-30T15:19:58.985Z,27.30
2018-06-30T15:22:28.194Z,27.33
2018-06-30T15:24:57.312Z,27.16
2018-06-30T15:27:26.542Z,27.23
2018-06-30T15:29:55.669Z,27.36
2018-06-30T15:32:24.796Z,27.30
2018-06-30T15:34:54.098Z,27.37
2018-06-30T15:37:23.243Z,27.01
2018-06-30T15:39:52.505Z,27.19
2018-06-30T15:42:21.713Z,26.95
2018-06-30T15:44:51.112Z,26.92
2018-06-30T15:47:20.593Z,27.00
2018-06-30T15:49:49.806Z,27.01
2018-06-30T15:52:19.075Z,26.68
2018-06-30T15:54:48.527Z,26.59
2018-06-30T15:57:17.666Z,26.45
2018-06-30T15:59:46.969Z,26.42
2018-06-30T16:02:16.212Z,26.70
2018-06-30T16:04:45.948Z,26.91
2018-06-30T16:07:15.168Z,26.80
2018-06-30T16:09:44.430Z,26.95
2018-06-30T16:12:13.620Z,26.86
2018-06-30T16:14:42.894Z,26.70
2018-06-30T16:17:12.092Z,26.36
2018-06-30T16:19:41.389Z,26.05
2018-06-30T16:22:10.589Z,26.14
2018-06-30T16:24:39.773Z,25.84
2018-06-30T16:27:09.013Z,25.65
2018-06-30T16:29:38.184Z,25.98
2018-06-30T16:32:07.324Z,26.05
2018-06-30T16:34:36.543Z,25.86
2018-06-30T16:37:05.714Z,25.92
2018-06-30T16:39:34.905Z,25.89
2018-06-30T16:42:04.169Z,25.51
2018-06-30T16:44:33.321Z,25.41
2018-06-30T16:47:02.523Z,25.32
2018-06-30T16:49:31.645Z,25.42
2018-06-30T16:52:01.031Z,25.65
2018-06-30T16:54:30.197Z,25.43
2018-06-30T16:56:59.333Z,25.38
2018-06-30T16:59:28.510Z,25.35
2018-06-30T17:01:57.918Z,25.30
2018-06-30T17:04:27.045Z,25.49
2018-06-30T17:06:56.183Z,25.56
2018-06-30T17:09:25.540Z,25.72
2018-06-30T17:11:54.762Z,25.71
2018-06-30T17:14:23.992Z,25.68
2018-06-30T17:16:53.181Z,25.54
2018-06-30T17:19:22.357Z,25.51
2018-06-30T17:21:51.581Z,25.42
2018-06-30T17:24:20.744Z,25.15
2018-06-30T17:26:49.936Z,24.86
2018-06-30T17:29:19.133Z,24.83
2018-06-30T17:31:48.334Z,24.80
2018-06-30T17:34:17.818Z,25.00
2018-06-30T17:36:47.051Z,24.73
2018-06-30T17:39:16.221Z,24.47
2018-06-30T17:41:45.460Z,24.60
2018-06-30T17:44:14.712Z,24.36
2018-06-30T17:46:43.841Z,24.26
2018-06-30T17:49:13.023Z,24.09
2018-06-30T17:51:42.165Z,24.07
2018-06-30T17:54:11.333Z,23.98
2018-06-30T17:56:40.456Z,23.81
2018-06-30T17:59:09.626Z,23.95
2018-06-30T18:01:38.773Z,23.82
2018-06-30T18:04:07.983Z,23.60
2018-06-30T18:06:37.296Z,23.73
2018-06-30T18:09:09.107Z,23.66
2018-06-30T18:11:38.364Z,23.79
2018-06-30T18:14:07.857Z,23.63
2018-06-30T18:16:37.502Z,23.43
2018-06-30T18:19:06.828Z,23.34
2018-06-30T18:21:36.061Z,23.34
2018-06-30T18:24:05.251Z,23.22
2018-06-30T18:26:34.501Z,23.14
2018-06-30T18:29:03.865Z,22.96
2018-06-30T18:31:33.112Z,22.92
2018-06-30T18:34:02.718Z,22.84
2018-06-30T18:36:32.036Z,22.77
2018-06-30T18:39:01.305Z,22.85
2018-06-30T18:41:30.561Z,22.63
2018-06-30T18:43:59.868Z,22.56
2018-06-30T18:46:29.147Z,22.37
2018-06-30T18:48:58.335Z,22.37
2018-06-30T18:51:28.460Z,22.27
2018-06-30T18:53:57.897Z,22.11
2018-06-30T18:56:27.209Z,21.93
2018-06-30T18:58:56.432Z,21.92
2018-06-30T19:01:25.674Z,21.89
2018-06-30T19:03:54.958Z,21.90
2018-06-30T19:06:24.290Z,21.75
2018-06-30T19:08:53.461Z,21.62
2018-06-30T19:11:22.756Z,21.47
2018-06-30T19:13:51.907Z,21.25
2018-06-30T19:16:21.224Z,21.39
2018-06-30T19:18:50.381Z,21.25
2018-06-30T19:21:19.613Z,21.25
2018-06-30T19:23:48.777Z,21.14
2018-06-30T19:26:18.168Z,20.99
2018-06-30T19:28:47.394Z,20.82
2018-06-30T19:31:16.618Z,20.72
2018-06-30T19:33:46.045Z,20.62
2018-06-30T19:36:15.573Z,20.59
2018-06-30T19:38:44.871Z,20.44
2018-06-30T19:41:14.084Z,20.45
2018-06-30T19:43:43.258Z,20.46
2018-06-30T19:46:14.468Z,20.44
2018-06-30T19:48:43.893Z,20.34
2018-06-30T19:51:13.261Z,20.06
2018-06-30T19:53:42.421Z,20.14
2018-06-30T19:56:11.630Z,20.19
2018-06-30T19:58:40.885Z,20.14
2018-06-30T20:01:10.085Z,20.02
2018-06-30T20:03:39.920Z,19.89
2018-06-30T20:06:09.301Z,19.98
2018-06-30T20:08:39.553Z,19.84
2018-06-30T20:11:09.071Z,19.79
2018-06-30T20:13:38.445Z,19.71
2018-06-30T20:16:07.691Z,19.69
2018-06-30T20:18:37.623Z,19.68
2018-06-30T20:21:07.941Z,19.56
2018-06-30T20:23:37.285Z,19.59
2018-06-30T20:26:06.867Z,19.59
2018-06-30T20:28:36.792Z,19.54
2018-06-30T20:31:06.072Z,19.63
2018-06-30T20:33:35.408Z,19.60
2018-06-30T20:36:04.890Z,19.58
2018-06-30T20:38:34.300Z,19.56
2018-06-30T20:41:03.520Z,19.52
2018-06-30T20:43:32.853Z,19.69
2018-06-30T20:46:02.313Z,19.86
2018-06-30T20:48:31.699Z,19.82
2018-06-30T20:51:00.914Z,19.81
2018-06-30T20:53:31.210Z,19.50
2018-06-30T20:56:00.532Z,19.51
2018-06-30T20:58:30.035Z,19.64
2018-06-30T21:00:59.541Z,19.67
2018-06-30T21:03:28.849Z,19.51
2018-06-30T21:05:58.143Z,19.42
2018-06-30T21:08:27.430Z,19.39
2018-06-30T21:10:56.744Z,19.32
2018-06-30T21:13:26.339Z,19.28
2018-06-30T21:15:56.172Z,19.15
2018-06-30T21:18:25.406Z,18.89
2018-06-30T21:20:54.751Z,18.81
2018-06-30T21:23:25.082Z,18.63
2018-06-30T21:25:54.980Z,18.64
2018-06-30T21:28:24.269Z,18.57
2018-06-30T21:30:53.777Z,18.53
2018-06-30T21:33:23.098Z,18.42
2018-06-30T21:35:52.476Z,18.43
2018-06-30T21:38:21.801Z,18.40
2018-06-30T21:40:51.027Z,18.50
2018-06-30T21:43:20.499Z,18.66
2018-06-30T21:45:49.905Z,18.48
2018-06-30T21:48:19.185Z,18.66
2018-06-30T21:50:48.905Z,18.57
2018-06-30T21:53:18.293Z,18.40
2018-06-30T21:55:47.716Z,18.19
2018-06-30T21:58:16.949Z,18.09
2018-06-30T22:00:51.844Z,18.01
2018-06-30T22:03:25.985Z,17.63
2018-06-30T22:05:56.486Z,17.67
2018-06-30T22:08:25.906Z,17.64
2018-06-30T22:10:55.585Z,17.66
2018-06-30T22:13:25.176Z,17.47
2018-06-30T22:15:54.609Z,17.27
2018-06-30T22:18:24.274Z,17.35
2018-06-30T22:20:53.622Z,17.40
2018-06-30T22:23:23.115Z,17.35
2018-06-30T22:25:52.370Z,17.42
2018-06-30T22:28:22.027Z,17.30
2018-06-30T22:30:51.231Z,17.23
2018-06-30T22:33:20.537Z,17.17
2018-06-30T22:35:49.786Z,17.10
2018-06-30T22:38:19.409Z,17.10
2018-06-30T22:40:48.587Z,17.13
2018-06-30T22:43:18.357Z,17.05
2018-06-30T22:45:47.561Z,17.08
2018-06-30T22:48:16.712Z,17.05
2018-06-30T22:50:45.954Z,17.06
2018-06-30T22:53:15.160Z,17.00
2018-06-30T22:55:44.390Z,17.01
2018-06-30T22:58:13.573Z,17.00
2018-06-30T23:00:42.773Z,16.85
2018-06-30T23:03:12.749Z,16.84
2018-06-30T23:05:42.625Z,16.83
2018-06-30T23:08:11.842Z,16.76
2018-06-30T23:10:41.077Z,16.62
2018-06-30T23:13:10.223Z,16.39
2018-06-30T23:15:39.462Z,16.08
2018-06-30T23:18:08.732Z,16.16
2018-06-30T23:20:38.127Z,16.19
2018-06-30T23:23:08.646Z,16.25
2018-06-30T23:25:38.530Z,15.99
2018-06-30T23:28:08.173Z,15.94
2018-06-30T23:30:37.668Z,15.95
2018-06-30T23:33:06.943Z,15.97
2018-06-30T23:35:36.236Z,16.03
2018-06-30T23:38:05.587Z,15.78
2018-06-30T23:40:34.873Z,15.71
2018-06-30T23:43:04.182Z,15.88
2018-06-30T23:45:33.429Z,15.81
2018-06-30T23:48:02.790Z,15.78
2018-06-30T23:50:32.025Z,15.77
2018-06-30T23:53:01.284Z,15.77
2018-06-30T23:55:30.586Z,15.71
2018-06-30T23:57:59.879Z,15.52
